createdAt,value
2019-02-27T00:02:26.632Z,102373.91
2019-02-27T00:05:33.046Z,102363.70
2019-02-27T00:08:39.431Z,102350.66
2019-02-27T00:11:46.883Z,102346.91
2019-02-27T00:14:53.411Z,102347.06
2019-02-27T00:17:59.870Z,102335.83
2019-02-27T00:21:10.280Z,102336.38
2019-02-27T00:24:14.744Z,102328.25
2019-02-27T00:27:21.102Z,102318.09
2019-02-27T00:30:27.977Z,102312.59
2019-02-27T00:33:34.468Z,102317.02
2019-02-27T00:36:44.889Z,102303.82
2019-02-27T00:39:48.860Z,102303.54
2019-02-27T00:42:55.193Z,102304.53
2019-02-27T00:46:01.669Z,102289.98
2019-02-27T00:49:08.240Z,102288.66
2019-02-27T00:52:18.031Z,102293.84
2019-02-27T00:55:22.664Z,102271.31
2019-02-27T00:58:29.060Z,102269.75
2019-02-27T01:01:35.414Z,102277.42
2019-02-27T01:04:41.853Z,102257.52
2019-02-27T01:07:48.304Z,102253.02
2019-02-27T01:10:54.932Z,102246.52
2019-02-27T01:14:03.737Z,102228.00
2019-02-27T01:17:09.393Z,102229.77
2019-02-27T01:20:15.822Z,102222.10
2019-02-27T01:23:22.230Z,102223.21
2019-02-27T01:26:30.912Z,102213.23
2019-02-27T01:29:37.349Z,102193.37
2019-02-27T01:32:43.904Z,102191.69
2019-02-27T01:35:52.250Z,102197.19
2019-02-27T01:38:59.360Z,102195.02
2019-02-27T01:42:05.699Z,102190.19
2019-02-27T01:45:14.798Z,102186.22
2019-02-27T01:48:21.187Z,102180.70
2019-02-27T01:51:28.242Z,102165.27
2019-02-27T01:54:35.264Z,102158.89
2019-02-27T01:57:41.627Z,102158.47
2019-02-27T02:00:48.025Z,102146.67
2019-02-27T02:03:54.399Z,102138.14
2019-02-27T02:07:00.749Z,102116.78
2019-02-27T02:10:10.713Z,102111.05
2019-02-27T02:13:31.281Z,102117.06
2019-02-27T02:17:24.964Z,102106.62
2019-02-27T02:20:48.440Z,102101.78
2019-02-27T02:24:21.677Z,102094.42
2019-02-27T02:27:51.640Z,102078.09
2019-02-27T02:31:21.458Z,102070.16
2019-02-27T02:34:52.176Z,102055.56
2019-02-27T02:38:51.793Z,102052.68
2019-02-27T02:42:11.755Z,102049.40
2019-02-27T02:45:33.069Z,102041.64
2019-02-27T02:49:17.754Z,102024.16
2019-02-27T02:52:54.470Z,102022.63
2019-02-27T02:56:23.928Z,102008.02
2019-02-27T03:00:00.144Z,102007.73
2019-02-27T03:03:59.214Z,101996.39
2019-02-27T03:07:31.389Z,101987.64
2019-02-27T03:11:02.538Z,101980.55
2019-02-27T03:14:27.655Z,101972.57
2019-02-27T03:18:05.847Z,101952.13
2019-02-27T03:22:03.266Z,101951.83
2019-02-27T03:25:30.803Z,101935.89
2019-02-27T03:29:18.484Z,101933.51
2019-02-27T03:32:43.895Z,101937.76
2019-02-27T03:36:23.532Z,101928.14
2019-02-27T03:40:01.416Z,101939.03
2019-02-27T03:43:45.628Z,101933.75
2019-02-27T03:47:26.215Z,101943.55
2019-02-27T03:51:03.174Z,101943.59
2019-02-27T03:54:56.992Z,101943.09
2019-02-27T03:58:09.137Z,101942.28
2019-02-27T04:02:05.897Z,101932.89
2019-02-27T04:05:58.303Z,101927.16
2019-02-27T04:09:08.804Z,101915.89
2019-02-27T04:12:16.416Z,101906.38
2019-02-27T04:15:23.390Z,101904.32
2019-02-27T04:18:28.612Z,101897.44
2019-02-27T04:21:35.084Z,101895.72
2019-02-27T04:24:41.561Z,101887.77
2019-02-27T04:27:47.824Z,101880.65
2019-02-27T04:30:55.712Z,101874.67
2019-02-27T04:34:02.042Z,101865.08
2019-02-27T04:37:09.798Z,101859.59
2019-02-27T04:40:16.122Z,101856.81
2019-02-27T04:43:22.997Z,101859.11
2019-02-27T04:46:30.564Z,101850.06
2019-02-27T04:49:37.861Z,101850.37
2019-02-27T04:52:44.928Z,101852.70
2019-02-27T04:55:51.377Z,101842.00
2019-02-27T04:58:57.682Z,101843.92
2019-02-27T05:02:04.069Z,101843.28
2019-02-27T05:05:10.419Z,101837.16
2019-02-27T05:08:16.723Z,101844.97
2019-02-27T05:11:23.067Z,101842.40
2019-02-27T05:14:29.455Z,101852.66
2019-02-27T05:17:35.901Z,101846.30
2019-02-27T05:20:44.917Z,101843.12
2019-02-27T05:23:50.419Z,101843.53
2019-02-27T05:27:00.824Z,101836.17
2019-02-27T05:30:06.877Z,101829.23
2019-02-27T05:33:14.371Z,101827.52
2019-02-27T05:36:20.688Z,101832.31
2019-02-27T05:39:27.258Z,101831.20
2019-02-27T05:42:34.147Z,101831.40
2019-02-27T05:45:40.465Z,101817.00
2019-02-27T05:48:46.830Z,101818.59
2019-02-27T05:51:53.302Z,101804.00
2019-02-27T05:54:59.575Z,101804.88
2019-02-27T05:58:06.114Z,101809.72
2019-02-27T06:01:12.431Z,101802.00
2019-02-27T06:04:18.911Z,101799.74
2019-02-27T06:07:25.324Z,101793.37
2019-02-27T06:10:31.609Z,101788.27
2019-02-27T06:13:38.943Z,101751.33
2019-02-27T06:16:45.352Z,101777.84
2019-02-27T06:19:51.823Z,101772.75
2019-02-27T06:22:58.190Z,101764.84
2019-02-27T06:26:04.530Z,101781.54
2019-02-27T06:29:11.045Z,101782.09
2019-02-27T06:32:17.413Z,101776.39
2019-02-27T06:35:24.276Z,101787.94
2019-02-27T06:38:30.620Z,101764.28
2019-02-27T06:41:37.223Z,101776.83
2019-02-27T06:44:43.697Z,101765.80
2019-02-27T06:47:50.129Z,101765.80
2019-02-27T06:50:58.328Z,101767.53
2019-02-27T06:54:04.930Z,101778.84
2019-02-27T06:57:11.375Z,101766.78
2019-02-27T07:00:18.964Z,101774.95
2019-02-27T07:03:29.230Z,101757.31
2019-02-27T07:06:34.051Z,101754.52
2019-02-27T07:09:40.312Z,101757.25
2019-02-27T07:12:46.959Z,101764.09
2019-02-27T07:15:55.546Z,101766.30
2019-02-27T07:19:01.462Z,101747.66
2019-02-27T07:22:08.911Z,101748.63
2019-02-27T07:25:16.012Z,101749.75
2019-02-27T07:28:22.429Z,101733.08
2019-02-27T07:31:28.918Z,101732.19
2019-02-27T07:34:35.185Z,101729.50
2019-02-27T07:37:41.806Z,101738.00
2019-02-27T07:40:48.319Z,101731.98
2019-02-27T07:43:54.903Z,101717.81
2019-02-27T07:47:01.242Z,101722.66
2019-02-27T07:50:09.118Z,101719.16
2019-02-27T07:53:17.675Z,101714.92
2019-02-27T07:56:23.774Z,101704.84
2019-02-27T07:59:30.275Z,101697.48
2019-02-27T08:02:36.841Z,101697.84
2019-02-27T08:05:43.208Z,101694.34
2019-02-27T08:08:49.682Z,101681.31
2019-02-27T08:11:56.037Z,101682.90
2019-02-27T08:15:02.552Z,101681.78
2019-02-27T08:18:09.075Z,101680.25
2019-02-27T08:21:15.637Z,101687.83
2019-02-27T08:24:22.748Z,101679.39
2019-02-27T08:27:30.484Z,101672.33
2019-02-27T08:30:36.813Z,101668.92
2019-02-27T08:33:43.428Z,101664.89
2019-02-27T08:36:49.695Z,101671.44
2019-02-27T08:39:56.424Z,101658.26
2019-02-27T08:43:02.971Z,101662.66
2019-02-27T08:46:09.633Z,101661.30
2019-02-27T08:49:16.000Z,101670.77
2019-02-27T08:52:22.611Z,101658.98
2019-02-27T08:55:28.872Z,101595.72
2019-02-27T08:58:35.373Z,101654.11
2019-02-27T09:01:43.320Z,101644.86
2019-02-27T09:04:49.952Z,101650.81
2019-02-27T09:07:56.587Z,101649.09
2019-02-27T09:11:06.589Z,101641.38
2019-02-27T09:14:12.045Z,101636.17
2019-02-27T09:17:20.259Z,101630.28
2019-02-27T09:20:26.508Z,101619.50
2019-02-27T09:23:33.072Z,101620.39
2019-02-27T09:26:39.399Z,101567.19
2019-02-27T09:29:45.790Z,101608.95
2019-02-27T09:32:52.118Z,101596.85
2019-02-27T09:35:58.695Z,101598.33
2019-02-27T09:39:06.469Z,101597.11
2019-02-27T09:42:13.794Z,101581.66
2019-02-27T09:45:31.192Z,101588.87
2019-02-27T09:48:37.757Z,101577.66
2019-02-27T09:51:44.129Z,101581.27
2019-02-27T09:54:52.137Z,101591.23
2019-02-27T09:57:58.469Z,101582.49
2019-02-27T10:01:16.618Z,101575.95
2019-02-27T10:04:22.964Z,101580.39
2019-02-27T10:07:29.364Z,101586.56
2019-02-27T10:10:35.702Z,101588.53
2019-02-27T10:13:43.010Z,101571.57
2019-02-27T10:16:49.344Z,101567.90
2019-02-27T10:19:55.729Z,101569.75
2019-02-27T10:23:02.166Z,101566.67
2019-02-27T10:26:09.100Z,101582.95
2019-02-27T10:29:15.519Z,101577.69
2019-02-27T10:32:22.392Z,101569.15
2019-02-27T10:35:29.388Z,101565.92
2019-02-27T10:38:40.249Z,101560.85
2019-02-27T10:41:44.954Z,101547.25
2019-02-27T10:44:51.868Z,101542.50
2019-02-27T10:47:59.541Z,101541.31
2019-02-27T10:51:09.549Z,101525.34
2019-02-27T10:54:15.148Z,101524.96
2019-02-27T10:57:21.685Z,101518.31
2019-02-27T11:00:30.210Z,101513.04
2019-02-27T11:03:36.739Z,101515.89
2019-02-27T11:06:45.143Z,101501.03
2019-02-27T11:09:52.030Z,101480.86
2019-02-27T11:12:58.382Z,101468.16
2019-02-27T11:16:05.209Z,101474.48
2019-02-27T11:19:14.119Z,101468.36
2019-02-27T11:22:19.688Z,101464.12
2019-02-27T11:25:28.413Z,101448.32
2019-02-27T11:28:34.988Z,101436.72
2019-02-27T11:31:42.342Z,101437.45
2019-02-27T11:34:49.892Z,101420.44
2019-02-27T11:37:56.574Z,101417.13
2019-02-27T11:41:03.031Z,101399.71
2019-02-27T11:44:14.311Z,101402.73
2019-02-27T11:47:21.219Z,101395.66
2019-02-27T11:50:27.491Z,101376.55
2019-02-27T11:53:35.996Z,101360.81
2019-02-27T11:56:42.223Z,101342.88
2019-02-27T11:59:49.087Z,101342.70
2019-02-27T12:02:56.502Z,101341.81
2019-02-27T12:06:05.320Z,101324.80
2019-02-27T12:09:11.064Z,101326.58
2019-02-27T12:12:17.730Z,101315.90
2019-02-27T12:15:24.160Z,101307.19
2019-02-27T12:18:32.195Z,101310.36
2019-02-27T12:21:38.914Z,101299.82
2019-02-27T12:24:45.698Z,101304.73
2019-02-27T12:27:56.583Z,101298.03
2019-02-27T12:31:03.274Z,101306.27
2019-02-27T12:34:09.551Z,101294.56
2019-02-27T12:37:27.517Z,101289.66
2019-02-27T12:40:25.091Z,101293.69
2019-02-27T12:43:31.494Z,101289.70
2019-02-27T12:46:37.856Z,101275.51
2019-02-27T12:49:44.471Z,101253.67
2019-02-27T12:52:50.813Z,101241.05
2019-02-27T12:55:57.591Z,101237.95
2019-02-27T12:59:03.983Z,101235.22
2019-02-27T13:02:10.939Z,101221.69
2019-02-27T13:05:18.195Z,101220.20
2019-02-27T13:08:24.623Z,101217.03
2019-02-27T13:11:30.955Z,101194.91
2019-02-27T13:14:37.447Z,101186.14
2019-02-27T13:17:43.834Z,101176.16
2019-02-27T13:20:50.609Z,101178.55
2019-02-27T13:23:56.914Z,101180.94
2019-02-27T13:27:03.328Z,101168.38
2019-02-27T13:30:11.381Z,101170.61
2019-02-27T13:33:17.803Z,101163.17
2019-02-27T13:36:24.116Z,101149.55
2019-02-27T13:39:30.456Z,101150.82
2019-02-27T13:42:36.797Z,101145.83
2019-02-27T13:45:47.304Z,101136.41
2019-02-27T13:48:51.272Z,101131.59
2019-02-27T13:51:57.761Z,101127.34
2019-02-27T13:55:04.302Z,101118.94
2019-02-27T13:58:11.171Z,101122.00
2019-02-27T14:01:17.535Z,101101.86
2019-02-27T14:04:24.287Z,101096.64
2019-02-27T14:07:30.555Z,101097.83
2019-02-27T14:10:36.912Z,101101.73
2019-02-27T14:13:45.175Z,101096.95
2019-02-27T14:16:51.742Z,101086.23
2019-02-27T14:19:58.605Z,101075.84
2019-02-27T14:23:07.387Z,101075.84
2019-02-27T14:26:13.713Z,101074.41
2019-02-27T14:29:20.242Z,101067.41
2019-02-27T14:32:26.658Z,101064.63
2019-02-27T14:35:36.204Z,101059.87
2019-02-27T14:38:42.168Z,101062.08
2019-02-27T14:41:49.830Z,101059.91
2019-02-27T14:44:56.797Z,101066.97
2019-02-27T14:48:03.538Z,101055.45
2019-02-27T14:51:11.234Z,101051.88
2019-02-27T14:54:18.102Z,101044.30
2019-02-27T14:57:24.531Z,101035.94
2019-02-27T15:00:31.343Z,101041.46
2019-02-27T15:03:37.823Z,101030.45
2019-02-27T15:06:44.466Z,101033.99
2019-02-27T15:09:50.901Z,101032.29
2019-02-27T15:12:57.422Z,101018.78
2019-02-27T15:16:03.804Z,101013.48
2019-02-27T15:19:10.275Z,101015.23
2019-02-27T15:22:20.374Z,100991.24
2019-02-27T15:25:27.321Z,100985.13
2019-02-27T15:28:34.059Z,100982.13
2019-02-27T15:31:40.443Z,100969.63
2019-02-27T15:34:46.899Z,100973.78
2019-02-27T15:37:53.488Z,100976.73
2019-02-27T15:41:02.395Z,100976.42
2019-02-27T15:44:10.455Z,100979.63
2019-02-27T15:47:16.975Z,100989.66
2019-02-27T15:50:24.084Z,100991.58
2019-02-27T15:53:30.342Z,100989.66
2019-02-27T15:56:41.466Z,100991.41
2019-02-27T15:59:45.946Z,100986.95
2019-02-27T16:02:52.621Z,100977.66
2019-02-27T16:05:58.988Z,100962.58
2019-02-27T16:09:07.042Z,100952.06
2019-02-27T16:12:15.456Z,100947.75
2019-02-27T16:15:22.110Z,100944.63
2019-02-27T16:18:28.583Z,100945.22
2019-02-27T16:21:35.052Z,100931.33
2019-02-27T16:24:43.803Z,100926.84
2019-02-27T16:27:49.666Z,100914.27
2019-02-27T16:30:56.022Z,100923.66
2019-02-27T16:34:02.355Z,100920.16
2019-02-27T16:37:09.323Z,100918.34
2019-02-27T16:40:18.063Z,100910.92
2019-02-27T16:43:24.868Z,100897.73
2019-02-27T16:46:31.288Z,100894.95
2019-02-27T16:49:37.621Z,100885.86
2019-02-27T16:52:44.097Z,100878.02
2019-02-27T16:55:50.477Z,100870.25
2019-02-27T16:58:57.948Z,100865.03
2019-02-27T17:02:04.789Z,100859.75
2019-02-27T17:05:11.913Z,100841.50
2019-02-27T17:08:18.259Z,100841.19
2019-02-27T17:11:24.629Z,100843.91
2019-02-27T17:14:30.991Z,100846.38
2019-02-27T17:17:37.348Z,100834.87
2019-02-27T17:20:46.563Z,100826.55
2019-02-27T17:23:51.587Z,100823.69
2019-02-27T17:26:57.926Z,100818.20
2019-02-27T17:30:04.995Z,100815.20
2019-02-27T17:33:12.418Z,100807.51
2019-02-27T17:36:18.915Z,100803.86
2019-02-27T17:39:28.979Z,100802.80
2019-02-27T17:42:33.694Z,100803.86
2019-02-27T17:45:40.039Z,100802.38
2019-02-27T17:48:46.672Z,100798.42
2019-02-27T17:51:53.094Z,100794.99
2019-02-27T17:54:59.451Z,100800.97
2019-02-27T17:58:05.867Z,100791.45
2019-02-27T18:01:14.630Z,100781.54
2019-02-27T18:04:20.912Z,100776.77
2019-02-27T18:07:34.242Z,100771.19
2019-02-27T18:10:37.646Z,100769.98
2019-02-27T18:13:43.671Z,100764.41
2019-02-27T18:16:49.991Z,100763.14
2019-02-27T18:19:56.448Z,100751.98
2019-02-27T18:23:02.793Z,100760.97
2019-02-27T18:26:09.064Z,100738.28
2019-02-27T18:29:15.477Z,100747.78
2019-02-27T18:32:22.348Z,100731.02
2019-02-27T18:35:30.218Z,100734.22
2019-02-27T18:38:36.702Z,100724.48
2019-02-27T18:41:45.734Z,100723.51
2019-02-27T18:44:51.784Z,100714.73
2019-02-27T18:47:59.669Z,100712.23
2019-02-27T18:51:06.416Z,100703.09
2019-02-27T18:54:12.730Z,100700.38
2019-02-27T18:57:19.340Z,100692.88
2019-02-27T19:00:25.865Z,100692.88
2019-02-27T19:03:32.692Z,100691.77
2019-02-27T19:06:38.961Z,100694.05
2019-02-27T19:09:47.058Z,100675.06
2019-02-27T19:12:53.479Z,100668.27
2019-02-27T19:15:59.726Z,100668.72
2019-02-27T19:19:06.058Z,100667.88
2019-02-27T19:22:13.675Z,100647.63
2019-02-27T19:25:19.999Z,100646.27
2019-02-27T19:28:26.593Z,100650.76
2019-02-27T19:31:32.838Z,100639.00
2019-02-27T19:34:41.470Z,100644.33
2019-02-27T19:37:47.590Z,100643.47
2019-02-27T19:40:55.551Z,100656.08
2019-02-27T19:44:01.796Z,100656.14
2019-02-27T19:47:09.725Z,100643.42
2019-02-27T19:50:16.573Z,100643.38
2019-02-27T19:53:22.912Z,100636.98
2019-02-27T19:56:29.220Z,100627.25
2019-02-27T19:59:35.600Z,100617.45
2019-02-27T20:02:41.881Z,100607.06
2019-02-27T20:05:50.661Z,100608.75
2019-02-27T20:08:57.007Z,100599.52
2019-02-27T20:12:03.778Z,100597.66
2019-02-27T20:15:11.944Z,100591.41
2019-02-27T20:18:18.399Z,100584.66
2019-02-27T20:21:24.740Z,100571.30
2019-02-27T20:24:32.429Z,100573.23
2019-02-27T20:27:40.365Z,100570.53
2019-02-27T20:30:47.191Z,100554.02
2019-02-27T20:33:53.515Z,100551.38
2019-02-27T20:37:00.124Z,100557.39
2019-02-27T20:40:06.934Z,100555.61
2019-02-27T20:43:13.889Z,100543.34
2019-02-27T20:46:20.359Z,100540.01
2019-02-27T20:49:26.808Z,100529.67
2019-02-27T20:52:33.296Z,100526.89
2019-02-27T20:55:39.726Z,100513.15
2019-02-27T20:58:51.114Z,100507.73
2019-02-27T21:01:55.598Z,100505.36
2019-02-27T21:05:02.013Z,100499.54
2019-02-27T21:08:10.468Z,100494.45
2019-02-27T21:11:16.790Z,100492.59
2019-02-27T21:14:24.182Z,100483.59
2019-02-27T21:17:30.555Z,100486.80
2019-02-27T21:20:37.565Z,100484.09
2019-02-27T21:23:44.154Z,100486.30
2019-02-27T21:26:50.517Z,100478.84
2019-02-27T21:29:56.941Z,100478.16
2019-02-27T21:33:03.357Z,100460.48
2019-02-27T21:36:09.645Z,100460.42
2019-02-27T21:39:15.972Z,100463.86
2019-02-27T21:42:22.306Z,100453.25
2019-02-27T21:45:28.837Z,100451.84
2019-02-27T21:48:35.310Z,100445.09
2019-02-27T21:51:41.675Z,100438.76
2019-02-27T21:54:48.089Z,100440.91
2019-02-27T21:57:58.048Z,100426.61
2019-02-27T22:01:02.698Z,100425.53
2019-02-27T22:04:10.794Z,100422.88
2019-02-27T22:07:17.280Z,100409.11
2019-02-27T22:10:23.693Z,100412.21
2019-02-27T22:13:32.264Z,100396.02
2019-02-27T22:16:38.383Z,100405.61
2019-02-27T22:19:44.855Z,100405.61
2019-02-27T22:22:51.677Z,100403.36
2019-02-27T22:25:58.321Z,100408.62
2019-02-27T22:29:04.706Z,100397.64
2019-02-27T22:32:12.056Z,100398.44
2019-02-27T22:35:19.576Z,100389.80
2019-02-27T22:38:26.749Z,100378.85
2019-02-27T22:41:33.353Z,100365.98
2019-02-27T22:44:39.721Z,100367.38
2019-02-27T22:47:46.126Z,100358.25
2019-02-27T22:50:52.384Z,100357.78
2019-02-27T22:53:59.438Z,100347.01
2019-02-27T22:57:06.902Z,100345.59
2019-02-27T23:01:14.856Z,100352.66
2019-02-27T23:04:19.682Z,100341.93
2019-02-27T23:07:26.124Z,100330.06
2019-02-27T23:10:32.448Z,100329.27
2019-02-27T23:13:39.059Z,100319.69
2019-02-27T23:16:46.844Z,100315.56
2019-02-27T23:19:53.223Z,100305.23
2019-02-27T23:23:02.417Z,100305.69
2019-02-27T23:26:08.619Z,100304.43
2019-02-27T23:29:14.954Z,100312.00
2019-02-27T23:32:21.677Z,100307.14
2019-02-27T23:35:28.004Z,100307.61
2019-02-27T23:38:34.904Z,100295.58
2019-02-27T23:41:42.217Z,100287.55
2019-02-27T23:44:48.734Z,100288.12
2019-02-27T23:47:54.989Z,100267.86
2019-02-27T23:51:01.468Z,100273.23
2019-02-27T23:54:07.729Z,100263.45
2019-02-27T23:57:14.197Z,100249.19
